sensor_id;sensor_type;location;lat;lon;timestamp;pressure;altitude;pressure_sealevel;temperature;humidity
6528;BME280;64597;42.664;23.256;2023-04-27T00:00:10;94283.19;;;9.86;45.70
6528;BME280;64597;42.664;23.256;2023-04-27T00:02:37;94271.16;;;9.90;45.12
6528;BME280;64597;42.664;23.256;2023-04-27T00:05:04;94282.19;;;9.87;45.51
6528;BME280;64597;42.664;23.256;2023-04-27T00:07:30;94280.72;;;9.79;45.55
6528;BME280;64597;42.664;23.256;2023-04-27T00:09:57;94292.53;;;9.77;45.05
6528;BME280;64597;42.664;23.256;2023-04-27T00:12:24;94292.34;;;9.67;45.34
6528;BME280;64597;42.664;23.256;2023-04-27T00:14:51;94302.06;;;9.66;45.40
6528;BME280;64597;42.664;23.256;2023-04-27T00:17:18;94289.78;;;9.72;45.73
6528;BME280;64597;42.664;23.256;2023-04-27T00:19:43;94296.00;;;9.66;45.38
6528;BME280;64597;42.664;23.256;2023-04-27T00:22:10;94293.13;;;9.67;44.77
6528;BME280;64597;42.664;23.256;2023-04-27T00:24:36;94284.47;;;9.55;45.41
6528;BME280;64597;42.664;23.256;2023-04-27T00:27:03;94299.44;;;9.66;44.84
6528;BME280;64597;42.664;23.256;2023-04-27T00:29:29;94298.06;;;9.64;45.31
6528;BME280;64597;42.664;23.256;2023-04-27T00:31:57;94297.25;;;9.63;45.65
6528;BME280;64597;42.664;23.256;2023-04-27T00:34:23;94274.09;;;9.49;45.58
6528;BME280;64597;42.664;23.256;2023-04-27T00:36:49;94287.22;;;9.60;45.16
6528;BME280;64597;42.664;23.256;2023-04-27T00:39:15;94287.47;;;9.47;44.83
6528;BME280;64597;42.664;23.256;2023-04-27T00:41:43;94289.09;;;9.48;45.86
6528;BME280;64597;42.664;23.256;2023-04-27T00:44:10;94267.50;;;9.35;45.15
6528;BME280;64597;42.664;23.256;2023-04-27T00:46:36;94290.81;;;9.43;45.85
6528;BME280;64597;42.664;23.256;2023-04-27T00:49:02;94297.47;;;9.34;45.51
6528;BME280;64597;42.664;23.256;2023-04-27T00:51:28;94301.03;;;9.28;45.13
6528;BME280;64597;42.664;23.256;2023-04-27T00:53:57;94281.50;;;9.12;45.85
6528;BME280;64597;42.664;23.256;2023-04-27T00:56:25;94305.16;;;9.12;46.31
6528;BME280;64597;42.664;23.256;2023-04-27T00:58:51;94292.75;;;9.07;46.35
6528;BME280;64597;42.664;23.256;2023-04-27T01:01:17;94276.97;;;8.96;46.15
6528;BME280;64597;42.664;23.256;2023-04-27T01:03:45;94288.41;;;9.01;46.57
6528;BME280;64597;42.664;23.256;2023-04-27T01:06:11;94302.34;;;9.02;46.32
6528;BME280;64597;42.664;23.256;2023-04-27T01:08:37;94303.72;;;9.04;46.02
6528;BME280;64597;42.664;23.256;2023-04-27T01:11:04;94309.44;;;9.01;45.73
6528;BME280;64597;42.664;23.256;2023-04-27T01:13:31;94307.72;;;8.95;46.60
6528;BME280;64597;42.664;23.256;2023-04-27T01:15:56;94304.41;;;8.88;46.45
6528;BME280;64597;42.664;23.256;2023-04-27T01:18:22;94297.31;;;8.77;46.31
6528;BME280;64597;42.664;23.256;2023-04-27T01:20:49;94308.06;;;8.87;46.45
6528;BME280;64597;42.664;23.256;2023-04-27T01:23:15;94308.06;;;8.76;46.90
6528;BME280;64597;42.664;23.256;2023-04-27T01:25:41;94312.44;;;8.70;46.31
6528;BME280;64597;42.664;23.256;2023-04-27T01:28:08;94310.38;;;8.72;47.42
6528;BME280;64597;42.664;23.256;2023-04-27T01:30:34;94316.06;;;8.69;46.89
6528;BME280;64597;42.664;23.256;2023-04-27T01:33:00;94316.97;;;8.63;46.67
6528;BME280;64597;42.664;23.256;2023-04-27T01:35:27;94314.69;;;8.55;46.36
6528;BME280;64597;42.664;23.256;2023-04-27T01:37:54;94320.06;;;8.60;46.50
6528;BME280;64597;42.664;23.256;2023-04-27T01:40:21;94311.81;;;8.45;46.78
6528;BME280;64597;42.664;23.256;2023-04-27T01:42:47;94319.38;;;8.53;46.81
6528;BME280;64597;42.664;23.256;2023-04-27T01:45:13;94323.25;;;8.39;47.42
6528;BME280;64597;42.664;23.256;2023-04-27T01:47:39;94314.56;;;8.39;47.41
6528;BME280;64597;42.664;23.256;2023-04-27T01:50:05;94313.19;;;8.36;46.74
6528;BME280;64597;42.664;23.256;2023-04-27T01:52:32;94326.06;;;8.26;47.57
6528;BME280;64597;42.664;23.256;2023-04-27T01:54:59;94313.50;;;8.28;47.15
6528;BME280;64597;42.664;23.256;2023-04-27T01:57:25;94323.09;;;8.34;47.34
6528;BME280;64597;42.664;23.256;2023-04-27T01:59:52;94328.38;;;8.34;47.45
6528;BME280;64597;42.664;23.256;2023-04-27T02:02:20;94320.84;;;8.38;47.48
6528;BME280;64597;42.664;23.256;2023-04-27T02:04:47;94323.38;;;8.44;47.34
6528;BME280;64597;42.664;23.256;2023-04-27T02:07:13;94298.78;;;8.27;47.13
6528;BME280;64597;42.664;23.256;2023-04-27T02:09:40;94313.06;;;8.31;47.25
6528;BME280;64597;42.664;23.256;2023-04-27T02:12:06;94326.63;;;8.28;47.30
6528;BME280;64597;42.664;23.256;2023-04-27T02:14:32;94329.84;;;8.30;46.81
6528;BME280;64597;42.664;23.256;2023-04-27T02:16:59;94305.25;;;8.24;47.42
6528;BME280;64597;42.664;23.256;2023-04-27T02:19:25;94312.16;;;8.25;47.20
6528;BME280;64597;42.664;23.256;2023-04-27T02:21:51;94324.38;;;8.32;47.02
6528;BME280;64597;42.664;23.256;2023-04-27T02:24:18;94333.50;;;8.29;46.90
6528;BME280;64597;42.664;23.256;2023-04-27T02:26:44;94321.09;;;8.18;46.85
6528;BME280;64597;42.664;23.256;2023-04-27T02:29:10;94330.88;;;8.29;47.09
6528;BME280;64597;42.664;23.256;2023-04-27T02:31:39;94332.34;;;8.25;46.72
6528;BME280;64597;42.664;23.256;2023-04-27T02:34:06;94325.41;;;8.30;46.60
6528;BME280;64597;42.664;23.256;2023-04-27T02:36:32;94333.28;;;8.30;46.70
6528;BME280;64597;42.664;23.256;2023-04-27T02:38:58;94334.09;;;8.31;46.76
6528;BME280;64597;42.664;23.256;2023-04-27T02:41:25;94338.28;;;8.32;46.87
6528;BME280;64597;42.664;23.256;2023-04-27T02:43:53;94341.16;;;8.30;46.63
6528;BME280;64597;42.664;23.256;2023-04-27T02:46:20;94342.53;;;8.33;46.88
6528;BME280;64597;42.664;23.256;2023-04-27T02:48:46;94327.31;;;8.23;45.93
6528;BME280;64597;42.664;23.256;2023-04-27T02:51:12;94339.78;;;8.28;46.72
6528;BME280;64597;42.664;23.256;2023-04-27T02:53:38;94334.75;;;8.26;46.61
6528;BME280;64597;42.664;23.256;2023-04-27T02:56:04;94339.91;;;8.33;46.07
6528;BME280;64597;42.664;23.256;2023-04-27T02:58:31;94336.94;;;8.29;46.80
6528;BME280;64597;42.664;23.256;2023-04-27T03:00:58;94346.06;;;8.27;46.98
6528;BME280;64597;42.664;23.256;2023-04-27T03:03:24;94345.03;;;8.28;46.44
6528;BME280;64597;42.664;23.256;2023-04-27T03:05:51;94342.25;;;8.23;46.44
6528;BME280;64597;42.664;23.256;2023-04-27T03:08:17;94346.00;;;8.15;46.68
6528;BME280;64597;42.664;23.256;2023-04-27T03:10:44;94332.50;;;8.12;46.58
6528;BME280;64597;42.664;23.256;2023-04-27T03:13:11;94324.28;;;8.08;46.54
6528;BME280;64597;42.664;23.256;2023-04-27T03:15:38;94350.06;;;8.29;46.26
6528;BME280;64597;42.664;23.256;2023-04-27T03:18:04;94357.47;;;8.32;46.12
6528;BME280;64597;42.664;23.256;2023-04-27T03:20:31;94352.38;;;8.38;46.05
6528;BME280;64597;42.664;23.256;2023-04-27T03:22:58;94353.19;;;8.38;45.90
6528;BME280;64597;42.664;23.256;2023-04-27T03:25:25;94348.38;;;8.35;46.31
6528;BME280;64597;42.664;23.256;2023-04-27T03:27:52;94356.09;;;8.30;46.15
6528;BME280;64597;42.664;23.256;2023-04-27T03:30:18;94362.50;;;8.34;46.23
6528;BME280;64597;42.664;23.256;2023-04-27T03:32:45;94365.59;;;8.31;46.06
6528;BME280;64597;42.664;23.256;2023-04-27T03:35:11;94361.25;;;8.25;46.28
6528;BME280;64597;42.664;23.256;2023-04-27T03:37:41;94376.44;;;8.35;45.90
6528;BME280;64597;42.664;23.256;2023-04-27T03:40:11;94366.25;;;8.26;45.40
6528;BME280;64597;42.664;23.256;2023-04-27T03:42:37;94370.28;;;8.29;45.46
6528;BME280;64597;42.664;23.256;2023-04-27T03:45:04;94345.53;;;8.07;46.56
6528;BME280;64597;42.664;23.256;2023-04-27T03:47:30;94373.50;;;8.13;45.86
6528;BME280;64597;42.664;23.256;2023-04-27T03:49:57;94374.53;;;8.12;45.88
6528;BME280;64597;42.664;23.256;2023-04-27T03:52:23;94366.78;;;8.17;45.53
6528;BME280;64597;42.664;23.256;2023-04-27T03:54:49;94383.22;;;8.24;45.33
6528;BME280;64597;42.664;23.256;2023-04-27T03:57:15;94367.69;;;8.11;45.28
6528;BME280;64597;42.664;23.256;2023-04-27T03:59:41;94393.84;;;8.17;45.58
6528;BME280;64597;42.664;23.256;2023-04-27T04:02:07;94385.16;;;8.17;45.08
6528;BME280;64597;42.664;23.256;2023-04-27T04:04:36;94397.72;;;8.15;45.84
6528;BME280;64597;42.664;23.256;2023-04-27T04:07:03;94394.50;;;8.13;44.92
6528;BME280;64597;42.664;23.256;2023-04-27T04:09:31;94380.56;;;8.01;45.61
6528;BME280;64597;42.664;23.256;2023-04-27T04:12:02;94403.09;;;8.20;45.83
6528;BME280;64597;42.664;23.256;2023-04-27T04:14:31;94400.84;;;8.23;45.39
6528;BME280;64597;42.664;23.256;2023-04-27T04:17:22;94399.44;;;8.21;45.81
6528;BME280;64597;42.664;23.256;2023-04-27T04:19:53;94411.16;;;8.25;44.86
6528;BME280;64597;42.664;23.256;2023-04-27T04:22:24;94398.72;;;8.14;45.79
6528;BME280;64597;42.664;23.256;2023-04-27T04:25:01;94413.38;;;8.21;45.23
6528;BME280;64597;42.664;23.256;2023-04-27T04:27:27;94413.59;;;8.20;45.84
6528;BME280;64597;42.664;23.256;2023-04-27T04:29:55;94392.56;;;8.08;45.66
6528;BME280;64597;42.664;23.256;2023-04-27T04:32:23;94411.25;;;8.30;45.24
6528;BME280;64597;42.664;23.256;2023-04-27T04:35:05;94410.69;;;8.28;45.20
6528;BME280;64597;42.664;23.256;2023-04-27T04:37:40;94425.78;;;10.46;87.31
6528;BME280;64597;42.664;23.256;2023-04-27T04:40:08;94416.03;;;12.81;78.52
6528;BME280;64597;42.664;23.256;2023-04-27T04:42:38;94419.72;;;14.37;65.62
6528;BME280;64597;42.664;23.256;2023-04-27T04:45:05;94415.59;;;15.61;55.32
6528;BME280;64597;42.664;23.256;2023-04-27T04:47:32;94362.53;;;16.05;46.26
6528;BME280;64597;42.664;23.256;2023-04-27T04:49:58;94412.97;;;16.25;42.42
6528;BME280;64597;42.664;23.256;2023-04-27T04:52:25;94403.34;;;15.15;34.96
6528;BME280;64597;42.664;23.256;2023-04-27T04:54:51;94423.25;;;14.05;33.60
6528;BME280;64597;42.664;23.256;2023-04-27T04:57:21;94433.03;;;13.48;35.10
6528;BME280;64597;42.664;23.256;2023-04-27T04:59:47;94439.75;;;12.97;35.34
6528;BME280;64597;42.664;23.256;2023-04-27T05:02:13;94442.59;;;12.64;36.43
6528;BME280;64597;42.664;23.256;2023-04-27T05:04:39;94430.50;;;12.20;36.65
6528;BME280;64597;42.664;23.256;2023-04-27T05:07:05;94448.94;;;11.93;37.18
6528;BME280;64597;42.664;23.256;2023-04-27T05:09:32;94436.88;;;11.64;37.16
6528;BME280;64597;42.664;23.256;2023-04-27T05:12:00;94454.22;;;11.38;38.67
6528;BME280;64597;42.664;23.256;2023-04-27T05:14:26;94459.00;;;11.25;38.29
6528;BME280;64597;42.664;23.256;2023-04-27T05:16:53;94453.81;;;10.97;39.29
6528;BME280;64597;42.664;23.256;2023-04-27T05:19:21;94468.75;;;10.74;39.38
6528;BME280;64597;42.664;23.256;2023-04-27T05:21:49;94470.91;;;10.49;39.94
6528;BME280;64597;42.664;23.256;2023-04-27T05:24:18;94469.72;;;10.29;40.75
6528;BME280;64597;42.664;23.256;2023-04-27T05:26:46;94469.78;;;10.17;40.90
6528;BME280;64597;42.664;23.256;2023-04-27T05:29:12;94466.25;;;10.12;41.16
6528;BME280;64597;42.664;23.256;2023-04-27T05:31:39;94475.50;;;10.14;41.25
6528;BME280;64597;42.664;23.256;2023-04-27T05:34:05;94471.72;;;10.10;41.96
6528;BME280;64597;42.664;23.256;2023-04-27T05:36:32;94454.03;;;9.82;41.30
6528;BME280;64597;42.664;23.256;2023-04-27T05:39:01;94474.47;;;9.92;42.65
6528;BME280;64597;42.664;23.256;2023-04-27T05:41:28;94480.22;;;9.89;42.72
6528;BME280;64597;42.664;23.256;2023-04-27T05:43:55;94453.00;;;9.72;41.78
6528;BME280;64597;42.664;23.256;2023-04-27T05:46:23;94470.38;;;9.84;42.64
6528;BME280;64597;42.664;23.256;2023-04-27T05:48:49;94459.63;;;9.86;42.52
6528;BME280;64597;42.664;23.256;2023-04-27T05:51:15;94486.50;;;10.00;42.27
6528;BME280;64597;42.664;23.256;2023-04-27T05:53:42;94474.03;;;9.95;42.97
6528;BME280;64597;42.664;23.256;2023-04-27T05:56:11;94484.78;;;10.05;43.77
6528;BME280;64597;42.664;23.256;2023-04-27T05:58:37;94487.97;;;10.07;43.63
6528;BME280;64597;42.664;23.256;2023-04-27T06:01:03;94470.47;;;10.01;44.20
6528;BME280;64597;42.664;23.256;2023-04-27T06:03:29;94485.47;;;10.12;44.26
6528;BME280;64597;42.664;23.256;2023-04-27T06:05:57;94493.94;;;10.14;43.92
6528;BME280;64597;42.664;23.256;2023-04-27T06:08:23;94495.06;;;10.18;44.19
6528;BME280;64597;42.664;23.256;2023-04-27T06:10:49;94485.13;;;9.97;43.20
6528;BME280;64597;42.664;23.256;2023-04-27T06:13:16;94488.09;;;10.01;44.05
6528;BME280;64597;42.664;23.256;2023-04-27T06:15:42;94470.59;;;9.94;43.27
6528;BME280;64597;42.664;23.256;2023-04-27T06:18:11;94483.06;;;10.11;43.14
6528;BME280;64597;42.664;23.256;2023-04-27T06:20:48;94484.53;;;10.18;44.12
6528;BME280;64597;42.664;23.256;2023-04-27T06:23:13;94479.25;;;10.18;43.83
6528;BME280;64597;42.664;23.256;2023-04-27T06:26:08;94481.06;;;10.29;43.50
6528;BME280;64597;42.664;23.256;2023-04-27T06:28:33;94479.69;;;10.38;43.30
6528;BME280;64597;42.664;23.256;2023-04-27T06:31:00;94485.03;;;10.43;42.89
6528;BME280;64597;42.664;23.256;2023-04-27T06:33:26;94485.78;;;10.55;42.95
6528;BME280;64597;42.664;23.256;2023-04-27T06:35:52;94479.34;;;10.63;41.97
6528;BME280;64597;42.664;23.256;2023-04-27T06:38:18;94458.84;;;10.53;42.01
6528;BME280;64597;42.664;23.256;2023-04-27T06:40:44;94473.44;;;10.72;41.45
6528;BME280;64597;42.664;23.256;2023-04-27T06:43:10;94471.06;;;10.88;41.25
6528;BME280;64597;42.664;23.256;2023-04-27T06:45:35;94477.16;;;11.05;41.44
6528;BME280;64597;42.664;23.256;2023-04-27T06:48:01;94470.06;;;11.22;41.68
6528;BME280;64597;42.664;23.256;2023-04-27T06:50:27;94476.63;;;11.36;41.26
6528;BME280;64597;42.664;23.256;2023-04-27T06:53:01;94452.59;;;11.37;40.61
6528;BME280;64597;42.664;23.256;2023-04-27T06:55:26;94453.25;;;11.44;40.17
6528;BME280;64597;42.664;23.256;2023-04-27T06:57:52;94476.75;;;11.63;40.39
6528;BME280;64597;42.664;23.256;2023-04-27T07:00:18;94466.34;;;11.73;39.71
6528;BME280;64597;42.664;23.256;2023-04-27T07:02:44;94469.44;;;11.86;40.15
6528;BME280;64597;42.664;23.256;2023-04-27T07:05:09;94470.75;;;12.49;38.87
6528;BME280;64597;42.664;23.256;2023-04-27T07:07:35;94467.16;;;12.60;38.54
6528;BME280;64597;42.664;23.256;2023-04-27T07:10:01;94462.75;;;12.70;38.25
6528;BME280;64597;42.664;23.256;2023-04-27T07:12:26;94458.88;;;12.78;38.23
6528;BME280;64597;42.664;23.256;2023-04-27T07:14:52;94460.97;;;12.76;38.03
6528;BME280;64597;42.664;23.256;2023-04-27T07:17:17;94453.56;;;12.78;37.97
6528;BME280;64597;42.664;23.256;2023-04-27T07:19:43;94447.59;;;12.61;37.25
6528;BME280;64597;42.664;23.256;2023-04-27T07:22:09;94444.88;;;12.56;37.35
6528;BME280;64597;42.664;23.256;2023-04-27T07:24:34;94464.66;;;12.75;37.35
6528;BME280;64597;42.664;23.256;2023-04-27T07:27:00;94443.31;;;12.81;37.02
6528;BME280;64597;42.664;23.256;2023-04-27T07:29:26;94456.16;;;12.99;37.02
6528;BME280;64597;42.664;23.256;2023-04-27T07:31:53;94453.94;;;13.13;36.77
6528;BME280;64597;42.664;23.256;2023-04-27T07:34:22;94456.16;;;13.26;35.72
6528;BME280;64597;42.664;23.256;2023-04-27T07:36:48;94450.47;;;13.44;35.85
6528;BME280;64597;42.664;23.256;2023-04-27T07:39:14;94449.50;;;13.55;35.79
6528;BME280;64597;42.664;23.256;2023-04-27T07:41:39;94449.09;;;13.73;36.18
6528;BME280;64597;42.664;23.256;2023-04-27T07:44:05;94417.69;;;14.02;35.06
6528;BME280;64597;42.664;23.256;2023-04-27T07:46:30;94446.88;;;14.79;34.18
6528;BME280;64597;42.664;23.256;2023-04-27T07:48:56;94441.59;;;15.29;32.30
6528;BME280;64597;42.664;23.256;2023-04-27T07:51:24;94445.88;;;15.65;32.80
6528;BME280;64597;42.664;23.256;2023-04-27T07:53:49;94435.41;;;16.04;31.56
6528;BME280;64597;42.664;23.256;2023-04-27T07:56:15;94404.69;;;16.32;32.09
6528;BME280;64597;42.664;23.256;2023-04-27T07:58:42;94431.09;;;16.82;30.65
6528;BME280;64597;42.664;23.256;2023-04-27T08:01:08;94442.34;;;16.69;30.43
6528;BME280;64597;42.664;23.256;2023-04-27T08:03:33;94435.88;;;16.85;30.71
6528;BME280;64597;42.664;23.256;2023-04-27T08:05:59;94434.50;;;17.26;29.80
6528;BME280;64597;42.664;23.256;2023-04-27T08:08:25;94443.31;;;17.61;29.63
6528;BME280;64597;42.664;23.256;2023-04-27T08:10:51;94403.19;;;17.42;27.98
6528;BME280;64597;42.664;23.256;2023-04-27T08:13:20;94441.47;;;17.56;28.77
6528;BME280;64597;42.664;23.256;2023-04-27T08:15:46;94442.50;;;17.60;28.35
6528;BME280;64597;42.664;23.256;2023-04-27T08:18:11;94426.00;;;17.87;28.40
6528;BME280;64597;42.664;23.256;2023-04-27T08:20:39;94437.94;;;18.65;28.08
6528;BME280;64597;42.664;23.256;2023-04-27T08:23:05;94424.91;;;18.59;27.38
6528;BME280;64597;42.664;23.256;2023-04-27T08:25:30;94441.09;;;18.67;27.85
6528;BME280;64597;42.664;23.256;2023-04-27T08:27:56;94438.63;;;18.52;27.37
6528;BME280;64597;42.664;23.256;2023-04-27T08:30:24;94438.66;;;18.71;27.37
6528;BME280;64597;42.664;23.256;2023-04-27T08:32:50;94436.06;;;18.66;25.95
6528;BME280;64597;42.664;23.256;2023-04-27T08:35:15;94441.25;;;18.57;27.45
6528;BME280;64597;42.664;23.256;2023-04-27T08:37:41;94446.75;;;18.66;27.33
6528;BME280;64597;42.664;23.256;2023-04-27T08:40:09;94436.91;;;18.61;26.67
6528;BME280;64597;42.664;23.256;2023-04-27T08:42:35;94427.00;;;18.38;26.66
6528;BME280;64597;42.664;23.256;2023-04-27T08:45:08;94396.16;;;18.08;26.67
6528;BME280;64597;42.664;23.256;2023-04-27T08:47:34;94444.31;;;18.46;26.90
6528;BME280;64597;42.664;23.256;2023-04-27T08:49:59;94442.00;;;18.34;26.73
6528;BME280;64597;42.664;23.256;2023-04-27T08:52:25;94442.03;;;18.10;27.43
6528;BME280;64597;42.664;23.256;2023-04-27T08:54:53;94447.28;;;18.16;28.08
6528;BME280;64597;42.664;23.256;2023-04-27T08:57:19;94439.25;;;18.44;31.84
6528;BME280;64597;42.664;23.256;2023-04-27T08:59:59;94422.38;;;18.01;27.72
6528;BME280;64597;42.664;23.256;2023-04-27T09:02:25;94440.72;;;18.08;27.86
6528;BME280;64597;42.664;23.256;2023-04-27T09:04:54;94435.31;;;18.37;27.75
6528;BME280;64597;42.664;23.256;2023-04-27T09:07:23;94421.38;;;18.21;26.81
6528;BME280;64597;42.664;23.256;2023-04-27T09:10:03;94431.47;;;18.24;26.81
6528;BME280;64597;42.664;23.256;2023-04-27T09:12:29;94426.78;;;18.58;26.91
6528;BME280;64597;42.664;23.256;2023-04-27T09:15:02;94426.66;;;18.50;26.45
6528;BME280;64597;42.664;23.256;2023-04-27T09:17:29;94411.44;;;18.03;26.96
6528;BME280;64597;42.664;23.256;2023-04-27T09:20:10;94436.03;;;17.95;27.42
6528;BME280;64597;42.664;23.256;2023-04-27T09:22:57;94421.84;;;17.76;27.63
6528;BME280;64597;42.664;23.256;2023-04-27T09:25:30;94425.56;;;17.75;27.13
6528;BME280;64597;42.664;23.256;2023-04-27T09:28:03;94417.56;;;18.27;27.70
6528;BME280;64597;42.664;23.256;2023-04-27T09:30:31;94405.31;;;18.68;27.31
6528;BME280;64597;42.664;23.256;2023-04-27T09:32:59;94418.94;;;18.67;27.30
6528;BME280;64597;42.664;23.256;2023-04-27T09:35:30;94413.41;;;18.40;27.44
6528;BME280;64597;42.664;23.256;2023-04-27T09:37:57;94408.03;;;18.21;27.77
6528;BME280;64597;42.664;23.256;2023-04-27T09:40:25;94413.56;;;18.25;27.94
6528;BME280;64597;42.664;23.256;2023-04-27T09:42:58;94411.94;;;18.29;27.87
6528;BME280;64597;42.664;23.256;2023-04-27T09:45:27;94417.72;;;18.97;57.64
6528;BME280;64597;42.664;23.256;2023-04-27T09:47:53;94412.63;;;20.78;56.03
6528;BME280;64597;42.664;23.256;2023-04-27T09:50:22;94390.56;;;21.61;33.58
6528;BME280;64597;42.664;23.256;2023-04-27T09:52:48;94379.72;;;21.22;24.88
6528;BME280;64597;42.664;23.256;2023-04-27T09:55:16;94380.31;;;20.97;24.39
6528;BME280;64597;42.664;23.256;2023-04-27T09:57:48;94391.00;;;21.10;24.85
6528;BME280;64597;42.664;23.256;2023-04-27T10:00:22;94394.66;;;21.14;23.24
6528;BME280;64597;42.664;23.256;2023-04-27T10:05:41;94391.63;;;20.94;23.12
6528;BME280;64597;42.664;23.256;2023-04-27T10:08:13;94390.59;;;21.17;24.34
6528;BME280;64597;42.664;23.256;2023-04-27T10:10:49;94375.78;;;20.84;22.54
6528;BME280;64597;42.664;23.256;2023-04-27T10:13:23;94391.50;;;20.77;23.14
6528;BME280;64597;42.664;23.256;2023-04-27T10:15:50;94382.19;;;20.61;21.87
6528;BME280;64597;42.664;23.256;2023-04-27T10:18:30;94383.00;;;20.20;21.94
6528;BME280;64597;42.664;23.256;2023-04-27T10:21:08;94383.59;;;20.44;23.27
6528;BME280;64597;42.664;23.256;2023-04-27T10:23:47;94370.56;;;19.70;22.56
6528;BME280;64597;42.664;23.256;2023-04-27T10:26:25;94371.69;;;19.96;47.58
6528;BME280;64597;42.664;23.256;2023-04-27T10:31:32;94381.22;;;21.50;33.27
6528;BME280;64597;42.664;23.256;2023-04-27T10:34:09;94375.41;;;21.12;24.37
6528;BME280;64597;42.664;23.256;2023-04-27T10:36:38;94370.91;;;20.86;24.06
6528;BME280;64597;42.664;23.256;2023-04-27T10:39:19;94377.88;;;20.73;23.97
6528;BME280;64597;42.664;23.256;2023-04-27T10:41:54;94383.19;;;20.65;24.03
6528;BME280;64597;42.664;23.256;2023-04-27T10:44:30;94390.25;;;20.33;23.42
6528;BME280;64597;42.664;23.256;2023-04-27T10:46:58;94374.97;;;20.20;23.74
6528;BME280;64597;42.664;23.256;2023-04-27T10:49:26;94341.94;;;20.11;23.63
6528;BME280;64597;42.664;23.256;2023-04-27T10:51:53;94378.16;;;20.36;23.28
6528;BME280;64597;42.664;23.256;2023-04-27T10:54:18;94381.03;;;20.26;23.40
6528;BME280;64597;42.664;23.256;2023-04-27T10:56:44;94379.44;;;20.38;23.55
6528;BME280;64597;42.664;23.256;2023-04-27T10:59:09;94377.94;;;20.46;23.44
6528;BME280;64597;42.664;23.256;2023-04-27T11:01:35;94376.94;;;20.56;23.99
6528;BME280;64597;42.664;23.256;2023-04-27T11:04:02;94384.94;;;20.69;22.64
6528;BME280;64597;42.664;23.256;2023-04-27T11:06:30;94372.34;;;20.70;22.62
6528;BME280;64597;42.664;23.256;2023-04-27T11:08:57;94366.94;;;20.47;22.55
6528;BME280;64597;42.664;23.256;2023-04-27T11:11:24;94370.47;;;20.57;23.04
6528;BME280;64597;42.664;23.256;2023-04-27T11:13:52;94360.47;;;20.48;22.80
6528;BME280;64597;42.664;23.256;2023-04-27T11:16:17;94378.41;;;20.62;23.12
6528;BME280;64597;42.664;23.256;2023-04-27T11:18:46;94374.75;;;20.58;22.48
6528;BME280;64597;42.664;23.256;2023-04-27T11:21:14;94384.00;;;20.24;22.68
6528;BME280;64597;42.664;23.256;2023-04-27T11:23:41;94379.63;;;20.28;23.11
6528;BME280;64597;42.664;23.256;2023-04-27T11:26:17;94388.06;;;20.35;23.50
6528;BME280;64597;42.664;23.256;2023-04-27T11:28:45;94385.59;;;20.25;23.25
6528;BME280;64597;42.664;23.256;2023-04-27T11:31:21;94384.00;;;19.97;23.74
6528;BME280;64597;42.664;23.256;2023-04-27T11:33:48;94385.97;;;20.05;23.26
6528;BME280;64597;42.664;23.256;2023-04-27T11:36:21;94393.66;;;19.93;24.19
6528;BME280;64597;42.664;23.256;2023-04-27T11:38:47;94393.47;;;19.76;23.76
6528;BME280;64597;42.664;23.256;2023-04-27T11:41:13;94386.19;;;19.63;24.04
6528;BME280;64597;42.664;23.256;2023-04-27T11:43:42;94383.31;;;19.46;24.33
6528;BME280;64597;42.664;23.256;2023-04-27T11:46:12;94403.03;;;19.31;24.86
6528;BME280;64597;42.664;23.256;2023-04-27T11:48:38;94394.72;;;19.33;24.48
6528;BME280;64597;42.664;23.256;2023-04-27T11:51:05;94377.47;;;19.25;24.67
6528;BME280;64597;42.664;23.256;2023-04-27T11:53:35;94396.25;;;19.20;24.04
6528;BME280;64597;42.664;23.256;2023-04-27T11:56:03;94390.84;;;19.44;25.19
6528;BME280;64597;42.664;23.256;2023-04-27T11:58:36;94384.75;;;19.70;25.24
6528;BME280;64597;42.664;23.256;2023-04-27T12:01:03;94396.91;;;19.63;23.98
6528;BME280;64597;42.664;23.256;2023-04-27T12:03:29;94375.78;;;19.48;23.88
6528;BME280;64597;42.664;23.256;2023-04-27T12:05:55;94391.84;;;19.48;24.20
6528;BME280;64597;42.664;23.256;2023-04-27T12:08:21;94399.06;;;19.47;24.76
6528;BME280;64597;42.664;23.256;2023-04-27T12:10:47;94401.94;;;19.51;24.05
6528;BME280;64597;42.664;23.256;2023-04-27T12:13:13;94397.69;;;19.31;24.18
6528;BME280;64597;42.664;23.256;2023-04-27T12:15:39;94396.25;;;19.20;24.18
6528;BME280;64597;42.664;23.256;2023-04-27T12:18:05;94392.44;;;19.08;24.27
6528;BME280;64597;42.664;23.256;2023-04-27T12:20:34;94406.25;;;18.96;25.13
6528;BME280;64597;42.664;23.256;2023-04-27T12:23:00;94408.72;;;18.92;24.85
6528;BME280;64597;42.664;23.256;2023-04-27T12:25:26;94409.69;;;18.59;24.72
6528;BME280;64597;42.664;23.256;2023-04-27T12:27:52;94407.91;;;18.31;25.37
6528;BME280;64597;42.664;23.256;2023-04-27T12:30:18;94410.31;;;18.28;25.28
6528;BME280;64597;42.664;23.256;2023-04-27T12:32:45;94401.47;;;17.85;25.14
6528;BME280;64597;42.664;23.256;2023-04-27T12:35:10;94389.03;;;17.47;26.13
6528;BME280;64597;42.664;23.256;2023-04-27T12:37:39;94402.41;;;17.42;26.17
6528;BME280;64597;42.664;23.256;2023-04-27T12:40:05;94413.25;;;17.55;26.73
6528;BME280;64597;42.664;23.256;2023-04-27T12:42:32;94420.50;;;17.45;26.49
6528;BME280;64597;42.664;23.256;2023-04-27T12:44:58;94416.47;;;17.52;26.77
6528;BME280;64597;42.664;23.256;2023-04-27T12:47:25;94411.91;;;17.58;26.65
6528;BME280;64597;42.664;23.256;2023-04-27T12:49:51;94412.94;;;17.62;27.04
6528;BME280;64597;42.664;23.256;2023-04-27T12:52:18;94406.47;;;17.34;27.19
6528;BME280;64597;42.664;23.256;2023-04-27T12:54:44;94408.63;;;17.66;26.66
6528;BME280;64597;42.664;23.256;2023-04-27T12:57:11;94411.31;;;17.61;26.55
6528;BME280;64597;42.664;23.256;2023-04-27T12:59:38;94405.19;;;17.60;26.64
6528;BME280;64597;42.664;23.256;2023-04-27T13:02:05;94411.78;;;17.68;26.52
6528;BME280;64597;42.664;23.256;2023-04-27T13:04:32;94408.63;;;17.66;26.59
6528;BME280;64597;42.664;23.256;2023-04-27T13:06:58;94405.34;;;17.40;25.39
6528;BME280;64597;42.664;23.256;2023-04-27T13:09:28;94409.97;;;17.29;26.54
6528;BME280;64597;42.664;23.256;2023-04-27T13:11:54;94404.19;;;17.17;26.57